createdAt,value
2022-08-18T00:01:22.490Z,17.48
2022-08-18T00:03:57.024Z,16.55
2022-08-18T00:06:31.108Z,17.45
2022-08-18T00:09:01.309Z,16.33
2022-08-18T00:11:41.146Z,16.85
2022-08-18T00:14:22.709Z,17.85
2022-08-18T00:16:55.154Z,18.15
2022-08-18T00:19:45.438Z,17.30
2022-08-18T00:22:19.209Z,17.52
2022-08-18T00:24:52.345Z,17.65
2022-08-18T00:27:23.879Z,17.95
2022-08-18T00:29:59.588Z,17.17
2022-08-18T00:32:33.742Z,18.40
2022-08-18T00:35:08.542Z,17.58
2022-08-18T00:37:39.127Z,17.58
2022-08-18T00:40:11.825Z,17.75
2022-08-18T00:42:45.118Z,18.63
2022-08-18T00:45:16.930Z,17.98
2022-08-18T00:47:45.770Z,17.98
2022-08-18T00:50:19.797Z,18.77
2022-08-18T00:52:55.146Z,19.13
2022-08-18T00:55:24.965Z,20.70
2022-08-18T00:58:01.989Z,21.92
2022-08-18T01:00:30.972Z,21.65
2022-08-18T01:03:03.521Z,21.52
2022-08-18T01:05:40.919Z,21.73
2022-08-18T01:08:15.640Z,21.30
2022-08-18T01:10:46.743Z,20.75
2022-08-18T01:13:15.786Z,22.05
2022-08-18T01:15:44.897Z,22.45
2022-08-18T01:18:32.741Z,21.50
2022-08-18T01:21:38.436Z,22.35
2022-08-18T01:24:11.553Z,23.08
2022-08-18T01:26:46.472Z,22.65
2022-08-18T01:29:19.234Z,23.80
2022-08-18T01:31:55.684Z,23.35
2022-08-18T01:34:28.453Z,22.83
2022-08-18T01:36:58.025Z,23.83
2022-08-18T01:41:22.836Z,23.92
2022-08-18T01:42:19.162Z,24.92
2022-08-18T01:44:51.237Z,25.50
2022-08-18T01:47:20.795Z,26.33
2022-08-18T01:49:49.672Z,27.60
2022-08-18T01:52:21.180Z,27.67
2022-08-18T01:54:54.054Z,28.30
2022-08-18T01:57:23.471Z,28.02
2022-08-18T01:59:52.800Z,27.88
2022-08-18T02:02:27.155Z,27.83
2022-08-18T02:05:01.251Z,27.80
2022-08-18T02:07:32.624Z,29.40
2022-08-18T02:10:12.157Z,28.73
2022-08-18T02:12:42.140Z,27.75
2022-08-18T02:15:12.120Z,27.50
2022-08-18T02:17:41.887Z,27.85
2022-08-18T02:20:15.104Z,28.88
2022-08-18T02:22:44.786Z,27.30
2022-08-18T02:25:16.216Z,27.48
2022-08-18T02:27:45.890Z,27.80
2022-08-18T02:30:18.127Z,27.80
2022-08-18T02:32:47.120Z,27.00
2022-08-18T02:35:16.427Z,28.63
2022-08-18T02:37:48.251Z,27.42
2022-08-18T02:40:19.845Z,29.17
2022-08-18T02:42:49.816Z,27.45
2022-08-18T02:45:18.541Z,28.65
2022-08-18T02:47:52.900Z,29.83
2022-08-18T02:50:22.128Z,28.92
2022-08-18T02:52:50.989Z,29.13
2022-08-18T02:55:22.502Z,29.98
2022-08-18T02:57:51.370Z,31.95
2022-08-18T03:00:20.867Z,30.10
2022-08-18T03:02:51.658Z,30.35
2022-08-18T03:05:21.186Z,32.55
2022-08-18T03:07:51.219Z,32.03
2022-08-18T03:10:33.007Z,31.75
2022-08-18T03:13:03.565Z,32.47
2022-08-18T03:15:32.983Z,32.85
2022-08-18T03:18:02.443Z,32.85
2022-08-18T03:20:31.667Z,32.33
2022-08-18T03:23:05.854Z,34.78
2022-08-18T03:25:45.479Z,33.28
2022-08-18T03:28:14.925Z,33.58
2022-08-18T03:30:43.688Z,34.33
2022-08-18T03:33:12.888Z,35.58
2022-08-18T03:35:42.265Z,36.88
2022-08-18T03:38:11.136Z,36.38
2022-08-18T03:40:43.298Z,36.60
2022-08-18T03:43:23.776Z,34.88
2022-08-18T03:46:03.151Z,36.67
2022-08-18T03:48:33.498Z,37.55
2022-08-18T03:51:05.516Z,35.75
2022-08-18T03:53:34.827Z,37.60
2022-08-18T03:56:09.525Z,35.03
2022-08-18T03:58:38.370Z,35.25
2022-08-18T04:01:07.445Z,33.05
2022-08-18T04:03:37.012Z,35.80
2022-08-18T04:06:10.823Z,33.70
2022-08-18T04:08:41.462Z,33.20
2022-08-18T04:11:13.057Z,30.42
2022-08-18T04:13:42.074Z,30.75
2022-08-18T04:16:11.063Z,29.92
2022-08-18T04:18:39.816Z,29.88
2022-08-18T04:21:11.110Z,28.83
2022-08-18T04:23:44.211Z,28.67
2022-08-18T04:26:19.169Z,30.40
2022-08-18T04:28:48.583Z,30.42
2022-08-18T04:31:18.261Z,31.45
2022-08-18T04:33:47.203Z,32.75
2022-08-18T04:36:20.634Z,33.35
2022-08-18T04:38:50.009Z,33.35
2022-08-18T04:41:27.629Z,34.08
2022-08-18T04:43:58.328Z,34.03
2022-08-18T04:46:27.515Z,32.83
2022-08-18T04:48:59.242Z,32.05
2022-08-18T04:52:34.134Z,32.50
2022-08-18T04:54:18.574Z,31.23
2022-08-18T04:56:49.029Z,28.58
2022-08-18T04:59:18.441Z,28.88
2022-08-18T05:01:48.431Z,29.45
2022-08-18T05:04:19.205Z,29.25
2022-08-18T05:06:48.593Z,28.52
2022-08-18T05:09:22.720Z,27.08
2022-08-18T05:11:53.775Z,26.63
2022-08-18T05:14:22.639Z,27.02
2022-08-18T05:16:52.010Z,27.20
2022-08-18T05:19:23.233Z,28.08
2022-08-18T05:21:59.528Z,28.05
2022-08-18T05:24:37.163Z,26.60
2022-08-18T05:27:08.804Z,25.88
2022-08-18T05:29:41.837Z,23.48
2022-08-18T05:32:37.205Z,23.05
2022-08-18T05:35:06.288Z,23.77
2022-08-18T05:37:44.124Z,23.17
2022-08-18T05:40:15.986Z,23.15
2022-08-18T05:42:48.787Z,23.60
2022-08-18T05:45:20.333Z,23.30
2022-08-18T05:47:49.335Z,23.77
2022-08-18T05:50:21.207Z,22.40
2022-08-18T05:52:55.515Z,22.40
2022-08-18T05:55:49.531Z,23.45
2022-08-18T05:58:24.376Z,22.73
2022-08-18T06:01:06.855Z,23.52
2022-08-18T06:03:46.610Z,23.98
2022-08-18T06:06:20.443Z,23.85
2022-08-18T06:08:57.695Z,24.85
2022-08-18T06:11:28.518Z,24.30
2022-08-18T06:14:00.358Z,23.70
2022-08-18T06:16:49.464Z,23.52
2022-08-18T06:19:32.383Z,22.95
2022-08-18T06:22:12.012Z,22.20
2022-08-18T06:24:50.271Z,21.92
2022-08-18T06:27:27.940Z,22.00
2022-08-18T06:30:07.659Z,20.00
2022-08-18T06:32:53.018Z,20.48
2022-08-18T06:35:34.931Z,20.92
2022-08-18T06:38:45.469Z,21.08
2022-08-18T06:41:41.541Z,20.65
2022-08-18T06:44:10.658Z,20.10
2022-08-18T06:46:47.327Z,18.85
2022-08-18T06:49:25.823Z,20.85
2022-08-18T06:51:54.502Z,21.27
2022-08-18T06:54:30.748Z,20.13
2022-08-18T06:57:00.461Z,19.70
2022-08-18T06:59:31.745Z,20.38
2022-08-18T07:02:16.357Z,21.08
2022-08-18T07:04:59.923Z,20.50
2022-08-18T07:07:40.374Z,19.77
2022-08-18T07:10:31.388Z,19.50
2022-08-18T07:13:19.174Z,19.50
2022-08-18T07:15:48.698Z,19.52
2022-08-18T07:18:27.002Z,18.75
2022-08-18T07:20:59.423Z,18.98
2022-08-18T07:23:33.874Z,19.27
2022-08-18T07:26:10.606Z,18.83
2022-08-18T07:28:44.389Z,19.45
2022-08-18T07:31:20.476Z,18.10
2022-08-18T07:33:56.667Z,17.77
2022-08-18T07:36:28.798Z,17.90
2022-08-18T07:39:03.408Z,17.23
2022-08-18T07:41:39.435Z,16.48
2022-08-18T07:44:19.008Z,16.33
2022-08-18T07:46:55.156Z,16.55
2022-08-18T07:49:27.498Z,15.98
2022-08-18T07:52:02.662Z,15.20
2022-08-18T07:54:54.762Z,16.98
2022-08-18T07:57:42.442Z,15.23
2022-08-18T08:00:35.116Z,16.55
2022-08-18T08:03:29.051Z,14.88
2022-08-18T08:06:05.232Z,16.48
2022-08-18T08:08:40.893Z,14.52
2022-08-18T08:11:26.637Z,15.77
2022-08-18T08:14:09.821Z,15.30
2022-08-18T08:16:45.472Z,14.88
2022-08-18T08:19:58.751Z,13.88
2022-08-18T08:22:32.666Z,12.85
2022-08-18T08:25:28.310Z,12.60
2022-08-18T08:28:09.359Z,12.95
2022-08-18T08:30:47.711Z,12.23
2022-08-18T08:33:26.153Z,11.52
2022-08-18T08:36:00.835Z,12.13
2022-08-18T08:38:42.642Z,11.98
2022-08-18T08:41:19.893Z,12.20
2022-08-18T08:43:54.397Z,10.85
2022-08-18T08:46:29.993Z,10.27
2022-08-18T08:49:06.845Z,10.38
2022-08-18T08:51:40.622Z,11.00
2022-08-18T08:54:17.871Z,11.02
2022-08-18T08:56:50.597Z,11.23
2022-08-18T08:59:22.120Z,10.18
2022-08-18T09:01:59.864Z,10.57
2022-08-18T09:04:54.194Z,10.80
2022-08-18T09:07:42.449Z,11.23
2022-08-18T09:10:35.774Z,11.20
2022-08-18T09:13:21.161Z,10.45
2022-08-18T09:16:13.423Z,9.10
2022-08-18T09:18:53.145Z,11.07
2022-08-18T09:21:35.224Z,11.07
2022-08-18T09:24:13.766Z,9.95
2022-08-18T09:26:53.956Z,10.05
2022-08-18T09:29:27.851Z,10.18
2022-08-18T09:32:33.733Z,9.02
2022-08-18T09:35:17.566Z,9.00
2022-08-18T09:38:12.061Z,7.97
2022-08-18T09:41:06.426Z,7.68
2022-08-18T09:43:54.475Z,8.35
2022-08-18T09:46:51.352Z,9.05
2022-08-18T09:49:47.577Z,10.38
2022-08-18T09:56:01.675Z,10.13
2022-08-18T09:58:56.569Z,8.43
2022-08-18T10:01:38.304Z,9.30
2022-08-18T10:04:29.287Z,9.63
2022-08-18T10:07:38.821Z,9.43
2022-08-18T10:13:25.125Z,8.13
2022-08-18T10:16:14.241Z,7.88
2022-08-18T10:19:01.438Z,7.78
2022-08-18T10:21:53.878Z,7.93
2022-08-18T10:24:36.108Z,7.47
2022-08-18T10:27:09.877Z,7.85
2022-08-18T10:29:59.874Z,7.80
2022-08-18T10:32:53.957Z,7.65
2022-08-18T10:35:59.707Z,7.53
2022-08-18T10:38:54.158Z,7.70
2022-08-18T10:41:30.799Z,7.65
2022-08-18T10:44:10.586Z,8.63
2022-08-18T10:46:53.414Z,9.00
2022-08-18T10:49:33.255Z,7.90
2022-08-18T10:52:27.407Z,7.70
2022-08-18T10:55:18.215Z,7.38
2022-08-18T10:58:23.945Z,8.25
2022-08-18T11:01:07.990Z,8.02
2022-08-18T11:03:55.833Z,8.00
2022-08-18T11:06:27.449Z,7.43
2022-08-18T11:09:00.328Z,6.93
2022-08-18T11:14:53.016Z,7.57
2022-08-18T11:17:42.873Z,7.45
2022-08-18T11:20:15.606Z,8.20
2022-08-18T11:22:59.093Z,8.45
2022-08-18T11:25:31.121Z,7.80
2022-08-18T11:28:01.588Z,7.90
2022-08-18T11:30:35.228Z,7.28
2022-08-18T11:33:05.384Z,7.90
2022-08-18T11:35:46.856Z,7.22
2022-08-18T11:38:23.045Z,7.55
2022-08-18T11:46:39.007Z,7.32
2022-08-18T11:49:18.092Z,7.07
2022-08-18T11:57:54.438Z,7.40
2022-08-18T12:00:57.262Z,7.25
2022-08-18T12:03:41.585Z,7.50
2022-08-18T12:06:21.259Z,6.05
2022-08-18T12:08:59.084Z,6.78
2022-08-18T12:11:32.667Z,7.05
2022-08-18T12:14:31.832Z,7.10
2022-08-18T12:16:55.616Z,7.30
2022-08-18T12:19:28.059Z,7.43
2022-08-18T12:22:00.201Z,7.65
2022-08-18T12:24:36.711Z,7.28
2022-08-18T12:27:22.121Z,8.25
2022-08-18T12:29:51.778Z,8.23
2022-08-18T12:32:46.787Z,7.32
2022-08-18T12:35:13.709Z,9.70
2022-08-18T12:38:11.169Z,9.35
2022-08-18T12:40:35.351Z,8.75
2022-08-18T12:43:05.923Z,8.80
2022-08-18T12:45:37.421Z,8.55
2022-08-18T12:48:07.770Z,8.02
2022-08-18T12:50:49.650Z,7.93
2022-08-18T12:56:20.819Z,8.13
2022-08-18T12:58:51.933Z,7.80
2022-08-18T13:01:23.396Z,7.80
2022-08-18T13:07:00.443Z,7.32
2022-08-18T13:09:35.112Z,7.72
2022-08-18T13:12:21.424Z,6.80
2022-08-18T13:14:52.458Z,7.25
2022-08-18T13:17:29.201Z,7.07
2022-08-18T13:20:09.457Z,8.05
2022-08-18T13:22:40.884Z,7.60
2022-08-18T13:25:12.227Z,7.95
2022-08-18T13:27:45.107Z,7.60
2022-08-18T13:30:31.332Z,7.55
2022-08-18T13:33:02.402Z,7.47
2022-08-18T13:35:44.140Z,7.72
2022-08-18T13:38:20.796Z,6.88
2022-08-18T13:40:51.446Z,6.90
2022-08-18T13:43:26.085Z,6.88
2022-08-18T13:45:57.603Z,6.60
2022-08-18T13:48:26.490Z,7.50
2022-08-18T13:50:56.775Z,7.80
2022-08-18T13:53:27.392Z,6.55
2022-08-18T13:55:59.114Z,6.13
2022-08-18T13:58:29.475Z,6.30
2022-08-18T14:01:16.241Z,6.03
2022-08-18T14:03:51.286Z,7.22
2022-08-18T14:06:23.692Z,6.50
2022-08-18T14:08:54.358Z,6.20
2022-08-18T14:11:27.717Z,6.38
2022-08-18T14:14:02.673Z,6.22
2022-08-18T14:16:34.346Z,5.97
2022-08-18T14:19:22.975Z,6.47
2022-08-18T14:22:11.722Z,7.55
2022-08-18T14:24:59.035Z,7.63
2022-08-18T14:27:35.066Z,5.85
2022-08-18T14:30:07.545Z,7.15
2022-08-18T14:32:51.087Z,8.77
2022-08-18T14:35:33.848Z,6.45
2022-08-18T14:38:11.165Z,6.07
2022-08-18T14:40:43.106Z,10.43
2022-08-18T14:43:14.224Z,6.38
2022-08-18T14:45:48.942Z,6.40
2022-08-18T14:48:22.334Z,6.45
2022-08-18T14:50:55.314Z,7.28
2022-08-18T14:53:27.716Z,9.25
2022-08-18T14:55:57.810Z,10.48
2022-08-18T14:58:31.014Z,6.55
2022-08-18T15:01:08.380Z,6.25
2022-08-18T15:03:42.311Z,13.40
2022-08-18T15:06:12.950Z,6.03
2022-08-18T15:08:47.096Z,8.93
2022-08-18T15:11:16.594Z,6.97
2022-08-18T15:13:46.516Z,7.20
2022-08-18T15:16:15.882Z,7.43
2022-08-18T15:18:47.556Z,6.50
2022-08-18T15:21:38.569Z,9.27
2022-08-18T15:24:26.518Z,6.43
2022-08-18T15:27:05.477Z,6.18
2022-08-18T15:29:35.712Z,5.78
2022-08-18T15:32:05.684Z,5.93
2022-08-18T15:34:46.292Z,5.55
2022-08-18T15:37:19.391Z,6.60
2022-08-18T15:39:55.449Z,5.80
2022-08-18T15:42:25.014Z,5.50
2022-08-18T15:44:53.946Z,5.55
2022-08-18T15:47:25.080Z,5.35
2022-08-18T15:49:55.529Z,5.93
2022-08-18T15:52:26.607Z,7.18
2022-08-18T15:55:02.312Z,6.25
2022-08-18T15:57:39.042Z,6.80
2022-08-18T16:00:12.205Z,6.65
2022-08-18T16:02:44.814Z,6.63
2022-08-18T16:05:22.004Z,7.35
2022-08-18T16:07:50.643Z,6.95
2022-08-18T16:10:22.106Z,7.00
2022-08-18T16:12:51.658Z,6.45
2022-08-18T16:15:23.474Z,6.70
2022-08-18T16:17:54.704Z,7.85
2022-08-18T16:20:25.395Z,7.45
2022-08-18T16:22:54.785Z,6.93
2022-08-18T16:25:23.623Z,6.55
2022-08-18T16:27:54.042Z,7.43
2022-08-18T16:30:24.819Z,7.20
2022-08-18T16:32:54.302Z,8.25
2022-08-18T16:35:26.519Z,8.35
2022-08-18T16:37:55.067Z,8.43
2022-08-18T16:40:23.880Z,9.43
2022-08-18T16:42:56.849Z,10.18
2022-08-18T16:45:25.368Z,7.40
2022-08-18T16:47:54.825Z,9.18
2022-08-18T16:50:24.952Z,8.25
2022-08-18T16:52:54.962Z,7.25
2022-08-18T16:55:23.831Z,7.70
2022-08-18T16:58:13.585Z,6.90
2022-08-18T17:01:02.017Z,7.40
2022-08-18T17:03:48.266Z,7.78
2022-08-18T17:06:19.923Z,7.00
2022-08-18T17:08:50.346Z,7.30
2022-08-18T17:11:20.493Z,6.68
2022-08-18T17:13:50.459Z,7.85
2022-08-18T17:16:20.525Z,8.48
2022-08-18T17:18:49.952Z,7.75
2022-08-18T17:21:26.223Z,7.10
2022-08-18T17:23:57.925Z,6.88
2022-08-18T17:26:33.236Z,7.93
2022-08-18T17:29:11.499Z,7.50
2022-08-18T17:31:43.594Z,7.95
2022-08-18T17:34:16.001Z,7.10
2022-08-18T17:36:52.648Z,7.03
2022-08-18T17:39:29.520Z,7.25
2022-08-18T17:42:15.571Z,7.00
2022-08-18T17:44:52.390Z,7.47
2022-08-18T17:47:30.290Z,7.15
2022-08-18T17:50:28.373Z,6.90
2022-08-18T17:53:06.433Z,6.55
2022-08-18T17:55:41.118Z,8.15
2022-08-18T17:58:16.433Z,8.65
2022-08-18T18:00:45.478Z,8.52
2022-08-18T18:03:14.339Z,7.95
2022-08-18T18:05:46.613Z,7.32
2022-08-18T18:08:17.158Z,7.55
2022-08-18T18:11:05.374Z,7.43
2022-08-18T18:13:35.327Z,7.40
2022-08-18T18:16:24.747Z,7.47
2022-08-18T18:18:59.939Z,7.57
2022-08-18T18:21:53.431Z,8.40
2022-08-18T18:24:32.362Z,7.70
2022-08-18T18:27:02.849Z,8.55
2022-08-18T18:29:38.138Z,8.20
2022-08-18T18:32:24.651Z,8.23
2022-08-18T18:35:08.182Z,8.35
2022-08-18T18:37:47.424Z,8.45
2022-08-18T18:40:27.252Z,7.82
2022-08-18T18:42:59.286Z,8.88
2022-08-18T18:45:31.225Z,8.70
2022-08-18T18:48:06.919Z,7.65
2022-08-18T18:50:52.984Z,8.65
2022-08-18T18:53:32.572Z,8.80
2022-08-18T18:56:12.567Z,9.10
2022-08-18T18:58:53.423Z,8.93
2022-08-18T19:01:31.804Z,8.82
2022-08-18T19:04:07.397Z,8.57
2022-08-18T19:06:51.213Z,9.15
2022-08-18T19:09:24.815Z,8.88
2022-08-18T19:12:04.717Z,8.73
2022-08-18T19:14:39.040Z,9.00
2022-08-18T19:17:15.862Z,8.95
2022-08-18T19:19:49.713Z,9.20
2022-08-18T19:22:22.990Z,9.20
2022-08-18T19:24:57.757Z,9.52
2022-08-18T19:27:34.332Z,9.60
2022-08-18T19:30:09.783Z,9.23
2022-08-18T19:32:43.856Z,8.85
2022-08-18T19:35:35.158Z,9.75
2022-08-18T19:38:18.669Z,9.32
2022-08-18T19:40:53.782Z,9.45
2022-08-18T19:43:29.793Z,9.43
2022-08-18T19:46:10.927Z,9.73
2022-08-18T19:48:44.283Z,9.25
2022-08-18T19:51:24.940Z,10.15
2022-08-18T19:54:08.684Z,9.82
2022-08-18T19:56:50.868Z,9.90
2022-08-18T19:59:39.880Z,9.68
2022-08-18T20:02:35.207Z,10.10
2022-08-18T20:05:22.620Z,10.65
2022-08-18T20:08:19.956Z,10.25
2022-08-18T20:11:03.016Z,10.30
2022-08-18T20:13:36.681Z,10.85
2022-08-18T20:16:15.873Z,11.30
2022-08-18T20:18:49.068Z,10.65
2022-08-18T20:21:41.825Z,10.10
2022-08-18T20:24:18.610Z,11.35
2022-08-18T20:26:50.195Z,11.05
2022-08-18T20:29:40.184Z,10.68
2022-08-18T20:32:22.335Z,10.65
2022-08-18T20:34:52.988Z,10.57
2022-08-18T20:37:27.212Z,10.93
2022-08-18T20:39:58.047Z,10.55
2022-08-18T20:42:56.107Z,10.43
2022-08-18T20:45:42.592Z,9.13
2022-08-18T20:48:29.037Z,10.73
2022-08-18T20:51:09.723Z,10.65
2022-08-18T20:54:13.315Z,9.70
2022-08-18T20:56:48.139Z,11.13
2022-08-18T20:59:22.293Z,10.40
2022-08-18T21:01:56.657Z,10.88
2022-08-18T21:04:41.187Z,11.48
2022-08-18T21:07:36.685Z,10.75
2022-08-18T21:10:13.680Z,11.13
2022-08-18T21:12:51.953Z,10.40
2022-08-18T21:15:24.245Z,10.85
2022-08-18T21:18:04.966Z,10.80
2022-08-18T21:20:35.599Z,11.02
2022-08-18T21:23:10.270Z,11.00
2022-08-18T21:25:49.297Z,11.02
2022-08-18T21:28:21.603Z,10.65
2022-08-18T21:31:42.481Z,10.50
2022-08-18T21:33:51.052Z,11.00
2022-08-18T21:36:23.416Z,11.13
2022-08-18T21:39:05.787Z,11.18
2022-08-18T21:41:40.652Z,12.05
2022-08-18T21:44:15.479Z,11.52
2022-08-18T21:46:45.641Z,11.30
2022-08-18T21:49:23.670Z,12.18
2022-08-18T21:51:53.538Z,11.43
2022-08-18T21:54:26.963Z,11.55
2022-08-18T21:57:24.897Z,11.48
2022-08-18T22:00:19.478Z,12.00
2022-08-18T22:02:52.251Z,11.40
2022-08-18T22:05:57.967Z,11.52
2022-08-18T22:08:23.143Z,11.05
2022-08-18T22:11:59.640Z,11.40
2022-08-18T22:14:35.944Z,11.48
2022-08-18T22:17:33.081Z,12.07
2022-08-18T22:20:34.724Z,11.95
2022-08-18T22:23:26.350Z,11.52
2022-08-18T22:26:05.806Z,11.85
2022-08-18T22:28:42.555Z,11.60
2022-08-18T22:31:11.357Z,11.98
2022-08-18T22:33:40.441Z,11.57
2022-08-18T22:36:10.113Z,11.80
2022-08-18T22:38:38.709Z,12.40
2022-08-18T22:41:07.329Z,12.07
2022-08-18T22:43:37.485Z,11.70
2022-08-18T22:46:06.308Z,12.73
2022-08-18T22:48:34.855Z,11.95
2022-08-18T22:51:03.679Z,12.38
2022-08-18T22:53:32.578Z,12.07
2022-08-18T22:56:07.336Z,12.90
2022-08-18T22:58:38.160Z,11.57
2022-08-18T23:01:08.131Z,11.98
2022-08-18T23:03:41.831Z,13.20
2022-08-18T23:06:12.187Z,13.15
2022-08-18T23:08:54.882Z,12.57
2022-08-18T23:11:26.010Z,12.85
2022-08-18T23:13:57.338Z,12.85
2022-08-18T23:16:31.547Z,12.18
2022-08-18T23:19:03.151Z,14.13
2022-08-18T23:21:34.496Z,13.48
2022-08-18T23:24:05.969Z,13.27
2022-08-18T23:26:35.615Z,13.43
2022-08-18T23:29:06.303Z,13.38
2022-08-18T23:31:35.600Z,13.65
2022-08-18T23:34:04.945Z,13.07
2022-08-18T23:36:34.871Z,12.35
2022-08-18T23:39:03.768Z,13.27
2022-08-18T23:41:33.118Z,12.77
2022-08-18T23:44:01.917Z,13.48
2022-08-18T23:46:33.026Z,13.23
2022-08-18T23:49:04.706Z,13.57
2022-08-18T23:51:44.285Z,13.18
2022-08-18T23:54:14.622Z,13.40
2022-08-18T23:56:43.135Z,14.15
2022-08-18T23:59:13.062Z,13.45
